createdAt,value
2022-11-24T00:01:38.422Z,3.20
2022-11-24T00:04:05.862Z,3.20
2022-11-24T00:06:33.730Z,3.20
2022-11-24T00:09:01.014Z,3.30
2022-11-24T00:11:28.992Z,3.20
2022-11-24T00:13:55.814Z,3.20
2022-11-24T00:16:23.914Z,3.30
2022-11-24T00:18:52.120Z,3.20
2022-11-24T00:21:19.257Z,3.20
2022-11-24T00:23:46.927Z,3.30
2022-11-24T00:26:14.724Z,3.30
2022-11-24T00:28:42.434Z,3.30
2022-11-24T00:31:17.431Z,3.30
2022-11-24T00:33:45.036Z,3.30
2022-11-24T00:36:11.524Z,3.40
2022-11-24T00:38:38.516Z,3.40
2022-11-24T00:41:05.404Z,3.40
2022-11-24T00:43:31.879Z,3.40
2022-11-24T00:45:58.932Z,3.40
2022-11-24T00:48:26.743Z,3.50
2022-11-24T00:51:00.912Z,3.50
2022-11-24T00:53:27.960Z,3.50
2022-11-24T00:55:55.371Z,3.60
2022-11-24T00:58:22.497Z,3.60
2022-11-24T01:00:49.562Z,3.60
2022-11-24T01:03:16.447Z,3.70
2022-11-24T01:05:43.524Z,3.70
2022-11-24T01:08:10.133Z,3.70
2022-11-24T01:10:36.611Z,3.80
2022-11-24T01:13:03.597Z,3.80
2022-11-24T01:15:30.180Z,3.90
2022-11-24T01:17:57.150Z,3.90
2022-11-24T01:20:24.261Z,4.00
2022-11-24T01:22:51.217Z,4.10
2022-11-24T01:25:18.079Z,4.10
2022-11-24T01:27:44.736Z,4.10
2022-11-24T01:30:11.373Z,4.10
2022-11-24T01:32:38.359Z,4.20
2022-11-24T01:35:05.396Z,4.20
2022-11-24T01:37:32.473Z,4.20
2022-11-24T01:39:59.347Z,4.20
2022-11-24T01:42:25.856Z,4.20
2022-11-24T01:45:12.702Z,4.20
2022-11-24T01:47:40.803Z,4.30
2022-11-24T01:50:13.500Z,4.30
2022-11-24T01:52:42.516Z,4.40
2022-11-24T01:55:13.090Z,4.30
2022-11-24T01:57:44.442Z,4.40
2022-11-24T02:03:00.571Z,4.40
2022-11-24T02:05:40.952Z,4.60
2022-11-24T02:08:12.542Z,4.50
2022-11-24T02:10:39.444Z,4.50
2022-11-24T02:13:06.320Z,4.50
2022-11-24T02:15:34.334Z,4.50
2022-11-24T02:18:00.805Z,4.50
2022-11-24T02:20:27.849Z,4.50
2022-11-24T02:23:02.089Z,4.50
2022-11-24T02:25:39.225Z,4.50
2022-11-24T02:28:07.837Z,4.60
2022-11-24T02:30:35.509Z,4.60
2022-11-24T02:33:02.492Z,4.60
2022-11-24T02:35:28.975Z,4.60
2022-11-24T02:37:55.845Z,4.60
2022-11-24T02:40:25.503Z,4.70
2022-11-24T02:42:54.851Z,4.60
2022-11-24T02:45:21.506Z,4.60
2022-11-24T02:47:48.061Z,4.70
2022-11-24T02:50:15.017Z,4.70
2022-11-24T02:52:41.531Z,4.70
2022-11-24T02:55:08.531Z,4.80
2022-11-24T02:57:35.006Z,4.70
2022-11-24T03:00:01.921Z,4.70
2022-11-24T03:02:28.843Z,4.70
2022-11-24T03:04:55.383Z,4.70
2022-11-24T03:07:23.333Z,4.70
2022-11-24T03:09:49.902Z,4.70
2022-11-24T03:12:16.789Z,4.80
2022-11-24T03:14:43.288Z,4.80
2022-11-24T03:17:09.760Z,4.80
2022-11-24T03:19:36.628Z,4.80
2022-11-24T03:22:03.617Z,4.90
2022-11-24T03:24:30.678Z,4.90
2022-11-24T03:26:57.309Z,4.90
2022-11-24T03:29:24.219Z,4.90
2022-11-24T03:31:50.678Z,5.00
2022-11-24T03:34:17.567Z,5.00
2022-11-24T03:36:44.448Z,5.00
2022-11-24T03:39:12.014Z,5.00
2022-11-24T03:41:38.913Z,5.00
2022-11-24T03:44:05.893Z,5.00
2022-11-24T03:46:32.831Z,5.10
2022-11-24T03:48:59.902Z,5.10
2022-11-24T03:51:26.370Z,5.10
2022-11-24T03:53:53.270Z,5.10
2022-11-24T03:56:20.892Z,5.10
2022-11-24T03:58:47.341Z,5.20
2022-11-24T04:01:14.287Z,5.20
2022-11-24T04:03:40.856Z,5.20
2022-11-24T04:06:07.369Z,5.20
2022-11-24T04:08:36.810Z,5.20
2022-11-24T04:11:03.297Z,5.10
2022-11-24T04:13:30.216Z,5.00
2022-11-24T04:15:56.752Z,4.90
2022-11-24T04:18:23.702Z,4.90
2022-11-24T04:20:50.783Z,4.80
2022-11-24T04:23:17.939Z,4.80
2022-11-24T04:25:45.039Z,4.70
2022-11-24T04:28:11.671Z,4.70
2022-11-24T04:30:40.066Z,4.60
2022-11-24T04:33:07.015Z,4.60
2022-11-24T04:35:35.034Z,4.60
2022-11-24T04:38:02.549Z,4.70
2022-11-24T04:40:29.660Z,4.70
2022-11-24T04:42:56.866Z,4.70
2022-11-24T04:45:23.737Z,4.80
2022-11-24T04:47:50.885Z,4.80
2022-11-24T04:50:18.044Z,4.80
2022-11-24T04:52:44.754Z,4.80
2022-11-24T04:55:11.668Z,4.80
2022-11-24T04:57:39.011Z,4.80
2022-11-24T05:00:06.748Z,4.90
2022-11-24T05:02:33.213Z,4.90
2022-11-24T05:04:59.677Z,4.90
2022-11-24T05:07:26.689Z,4.90
2022-11-24T05:10:12.136Z,4.90
2022-11-24T05:12:39.809Z,5.00
2022-11-24T05:15:06.760Z,5.00
2022-11-24T05:17:34.455Z,5.00
2022-11-24T05:20:01.677Z,5.10
2022-11-24T05:22:29.154Z,5.10
2022-11-24T05:24:56.150Z,5.10
2022-11-24T05:27:23.114Z,5.20
2022-11-24T05:29:49.598Z,5.30
2022-11-24T05:32:16.789Z,5.20
2022-11-24T05:34:43.693Z,5.20
2022-11-24T05:37:10.633Z,5.20
2022-11-24T05:39:37.823Z,5.20
2022-11-24T05:42:25.680Z,5.30
2022-11-24T05:44:52.933Z,5.30
2022-11-24T05:47:20.274Z,5.30
2022-11-24T05:49:46.795Z,5.30
2022-11-24T05:52:13.408Z,5.30
2022-11-24T05:54:40.327Z,5.40
2022-11-24T05:57:07.194Z,5.40
2022-11-24T05:59:34.192Z,5.40
2022-11-24T06:02:00.790Z,5.40
2022-11-24T06:04:27.330Z,5.50
2022-11-24T06:06:54.221Z,5.40
2022-11-24T06:09:21.199Z,5.40
2022-11-24T06:11:48.434Z,5.50
2022-11-24T06:14:14.997Z,5.50
2022-11-24T06:16:42.025Z,5.50
2022-11-24T06:19:09.489Z,5.50
2022-11-24T06:21:35.981Z,5.60
2022-11-24T06:24:02.897Z,5.60
2022-11-24T06:26:29.360Z,5.60
2022-11-24T06:28:56.258Z,5.60
2022-11-24T06:31:23.300Z,5.60
2022-11-24T06:33:49.823Z,5.60
2022-11-24T06:36:16.370Z,5.70
2022-11-24T06:38:42.840Z,5.60
2022-11-24T06:41:14.166Z,5.60
2022-11-24T06:43:40.677Z,5.60
2022-11-24T06:46:07.418Z,5.60
2022-11-24T06:48:34.406Z,5.60
2022-11-24T06:51:01.859Z,5.60
2022-11-24T06:53:38.390Z,5.60
2022-11-24T06:56:10.743Z,5.60
2022-11-24T06:58:42.258Z,5.60
2022-11-24T07:01:09.583Z,5.60
2022-11-24T07:03:36.203Z,5.60
2022-11-24T07:06:03.191Z,5.70
2022-11-24T07:08:29.693Z,5.20
2022-11-24T07:10:56.288Z,5.70
2022-11-24T07:13:22.828Z,5.70
2022-11-24T07:15:49.718Z,5.60
2022-11-24T07:18:16.202Z,5.60
2022-11-24T07:20:43.633Z,5.60
2022-11-24T07:23:10.175Z,5.60
2022-11-24T07:25:36.698Z,5.60
2022-11-24T07:28:03.746Z,5.60
2022-11-24T07:30:30.275Z,5.60
2022-11-24T07:33:01.009Z,5.60
2022-11-24T07:35:28.098Z,5.60
2022-11-24T07:37:57.977Z,5.60
2022-11-24T07:40:26.324Z,5.70
2022-11-24T07:42:53.090Z,5.70
2022-11-24T07:45:20.188Z,5.70
2022-11-24T07:47:46.732Z,5.70
2022-11-24T07:50:13.690Z,5.70
2022-11-24T07:52:40.248Z,5.70
2022-11-24T07:55:07.605Z,5.70
2022-11-24T07:57:34.523Z,5.80
2022-11-24T08:00:01.015Z,5.80
2022-11-24T08:02:27.516Z,5.90
2022-11-24T08:04:54.497Z,6.00
2022-11-24T08:07:21.527Z,6.00
2022-11-24T08:09:50.197Z,6.00
2022-11-24T08:12:21.785Z,6.00
2022-11-24T08:14:49.822Z,6.00
2022-11-24T08:17:19.319Z,6.00
2022-11-24T08:19:46.439Z,6.00
2022-11-24T08:22:12.906Z,6.00
2022-11-24T08:24:45.938Z,6.10
2022-11-24T08:27:13.385Z,6.10
2022-11-24T08:29:40.389Z,6.20
2022-11-24T08:32:07.034Z,6.30
2022-11-24T08:34:34.309Z,6.40
2022-11-24T08:37:02.802Z,6.40
2022-11-24T08:39:29.878Z,6.40
2022-11-24T08:41:57.033Z,6.50
2022-11-24T08:44:23.667Z,6.40
2022-11-24T08:46:50.329Z,6.50
2022-11-24T08:49:17.805Z,6.60
2022-11-24T08:51:44.289Z,6.70
2022-11-24T08:54:13.802Z,6.80
2022-11-24T08:56:40.762Z,6.80
2022-11-24T08:59:09.970Z,6.90
2022-11-24T09:01:36.617Z,6.90
2022-11-24T09:04:04.272Z,7.20
2022-11-24T09:06:30.953Z,6.90
2022-11-24T09:08:58.406Z,6.90
2022-11-24T09:11:25.706Z,6.90
2022-11-24T09:13:53.091Z,6.90
2022-11-24T09:16:20.916Z,6.90
2022-11-24T09:18:48.254Z,7.00
2022-11-24T09:21:16.562Z,7.10
2022-11-24T09:23:43.681Z,7.10
2022-11-24T09:26:12.225Z,7.20
2022-11-24T09:28:38.734Z,7.20
2022-11-24T09:31:07.214Z,7.20
2022-11-24T09:33:34.550Z,7.30
2022-11-24T09:36:01.843Z,7.30
2022-11-24T09:38:29.206Z,7.40
2022-11-24T09:40:55.884Z,7.40
2022-11-24T09:43:34.076Z,7.50
2022-11-24T09:46:09.043Z,7.50
2022-11-24T09:48:42.812Z,7.50
2022-11-24T09:51:13.789Z,7.40
2022-11-24T09:53:49.721Z,7.50
2022-11-24T09:56:29.556Z,7.50
2022-11-24T09:59:07.237Z,7.50
2022-11-24T10:01:35.312Z,7.60
2022-11-24T10:04:06.342Z,7.60
2022-11-24T10:06:44.138Z,7.60
2022-11-24T10:09:23.332Z,7.70
2022-11-24T10:11:56.986Z,7.80
2022-11-24T10:14:27.059Z,7.90
2022-11-24T10:16:59.864Z,8.00
2022-11-24T10:19:43.796Z,8.10
2022-11-24T10:22:26.972Z,8.20
2022-11-24T10:25:04.286Z,8.30
2022-11-24T10:27:34.641Z,8.30
2022-11-24T10:30:01.423Z,8.40
2022-11-24T10:32:32.449Z,8.40
2022-11-24T10:35:00.721Z,8.40
2022-11-24T10:37:36.945Z,8.60
2022-11-24T10:40:06.164Z,8.60
2022-11-24T10:42:34.439Z,9.20
2022-11-24T10:45:01.925Z,8.70
2022-11-24T10:47:30.024Z,8.70
2022-11-24T10:49:59.781Z,9.10
2022-11-24T10:52:27.553Z,8.80
2022-11-24T10:54:58.388Z,8.80
2022-11-24T10:57:29.625Z,8.90
2022-11-24T10:59:59.343Z,8.90
2022-11-24T11:02:32.368Z,8.90
2022-11-24T11:04:59.184Z,9.00
2022-11-24T11:07:26.378Z,9.00
2022-11-24T11:10:13.204Z,9.00
2022-11-24T11:12:44.743Z,9.40
2022-11-24T11:15:38.490Z,9.00
2022-11-24T11:18:05.506Z,9.00
2022-11-24T11:20:33.381Z,8.90
2022-11-24T11:23:17.160Z,8.90
2022-11-24T11:25:43.813Z,8.90
2022-11-24T11:28:22.352Z,8.90
2022-11-24T11:31:18.578Z,8.90
2022-11-24T11:34:06.291Z,9.00
2022-11-24T11:36:35.747Z,9.00
2022-11-24T11:39:03.257Z,9.10
2022-11-24T11:41:32.195Z,9.20
2022-11-24T11:44:14.457Z,9.20
2022-11-24T11:46:42.573Z,9.30
2022-11-24T11:49:11.876Z,9.30
2022-11-24T11:55:04.654Z,9.30
2022-11-24T11:57:53.963Z,9.30
2022-11-24T12:00:22.008Z,9.30
2022-11-24T12:03:14.865Z,9.30
2022-11-24T12:05:41.474Z,9.30
2022-11-24T12:08:20.813Z,9.60
2022-11-24T12:11:06.509Z,9.50
2022-11-24T12:13:52.286Z,9.50
2022-11-24T12:16:29.718Z,9.50
2022-11-24T12:19:08.594Z,9.50
2022-11-24T12:21:39.424Z,9.50
2022-11-24T12:24:09.380Z,9.60
2022-11-24T12:26:48.354Z,9.60
2022-11-24T12:29:29.873Z,9.60
2022-11-24T12:32:05.491Z,9.60
2022-11-24T12:34:52.828Z,9.60
2022-11-24T12:37:19.633Z,9.60
2022-11-24T12:40:00.780Z,9.60
2022-11-24T12:42:44.017Z,9.60
2022-11-24T12:45:13.520Z,9.60
2022-11-24T12:47:58.792Z,9.60
2022-11-24T12:50:27.720Z,9.60
2022-11-24T12:53:21.171Z,9.60
2022-11-24T12:55:48.388Z,9.60
2022-11-24T12:58:28.974Z,9.50
2022-11-24T13:01:00.756Z,9.50
2022-11-24T13:03:27.666Z,9.50
2022-11-24T13:06:03.523Z,9.50
2022-11-24T13:08:31.432Z,9.50
2022-11-24T13:11:17.879Z,9.50
2022-11-24T13:13:53.549Z,9.50
2022-11-24T13:16:35.896Z,9.50
2022-11-24T13:19:12.268Z,9.50
2022-11-24T13:21:42.823Z,9.50
2022-11-24T13:24:19.997Z,9.50
2022-11-24T13:26:54.709Z,9.50
2022-11-24T13:29:25.550Z,9.50
2022-11-24T13:31:52.291Z,9.50
2022-11-24T13:34:39.367Z,9.50
2022-11-24T13:37:26.569Z,9.50
2022-11-24T13:40:22.122Z,9.50
2022-11-24T13:42:54.550Z,9.50
2022-11-24T13:45:39.581Z,9.50
2022-11-24T13:48:21.917Z,9.40
2022-11-24T13:50:53.483Z,9.40
2022-11-24T13:53:33.382Z,9.40
2022-11-24T13:56:03.088Z,9.40
2022-11-24T13:58:32.105Z,9.30
2022-11-24T14:01:07.678Z,9.30
2022-11-24T14:03:34.196Z,9.30
2022-11-24T14:06:01.788Z,9.30
2022-11-24T14:08:30.702Z,9.30
2022-11-24T14:10:58.474Z,9.30
2022-11-24T14:13:29.436Z,9.20
2022-11-24T14:16:00.512Z,9.20
2022-11-24T14:18:29.130Z,9.20
2022-11-24T14:20:56.434Z,9.10
2022-11-24T14:23:23.072Z,9.10
2022-11-24T14:25:50.809Z,9.10
2022-11-24T14:28:22.447Z,9.00
2022-11-24T14:30:49.409Z,9.00
2022-11-24T14:33:18.627Z,9.00
2022-11-24T14:35:49.519Z,8.90
2022-11-24T14:38:16.127Z,9.00
2022-11-24T14:40:45.153Z,8.90
2022-11-24T14:43:19.874Z,8.80
2022-11-24T14:45:50.860Z,8.80
2022-11-24T14:48:18.947Z,8.80
2022-11-24T14:50:46.014Z,8.80
2022-11-24T14:53:15.402Z,8.80
2022-11-24T14:55:42.274Z,8.70
2022-11-24T14:58:27.914Z,8.70
2022-11-24T15:01:07.991Z,8.70
2022-11-24T15:03:35.298Z,8.70
2022-11-24T15:06:02.198Z,8.60
2022-11-24T15:08:37.680Z,8.50
2022-11-24T15:11:06.726Z,8.50
2022-11-24T15:13:37.870Z,8.50
2022-11-24T15:16:24.471Z,8.40
2022-11-24T15:19:01.111Z,8.40
2022-11-24T15:21:32.290Z,8.40
2022-11-24T15:24:15.995Z,8.40
2022-11-24T15:26:42.858Z,8.30
2022-11-24T15:29:13.342Z,8.30
2022-11-24T15:31:40.467Z,8.20
2022-11-24T15:34:07.630Z,8.10
2022-11-24T15:36:34.105Z,8.00
2022-11-24T15:39:01.057Z,7.90
2022-11-24T15:41:29.719Z,7.80
2022-11-24T15:43:59.673Z,7.60
2022-11-24T15:46:27.598Z,7.50
2022-11-24T15:48:55.402Z,7.40
2022-11-24T15:51:24.741Z,7.40
2022-11-24T15:53:55.780Z,7.30
2022-11-24T15:56:28.566Z,7.20
2022-11-24T15:58:55.562Z,7.20
2022-11-24T16:01:23.633Z,7.10
2022-11-24T16:03:50.170Z,7.00
2022-11-24T16:06:24.236Z,6.90
2022-11-24T16:08:51.986Z,6.80
2022-11-24T16:11:18.460Z,6.70
2022-11-24T16:13:51.486Z,6.60
2022-11-24T16:16:18.817Z,6.50
2022-11-24T16:18:46.867Z,6.40
2022-11-24T16:21:13.334Z,6.40
2022-11-24T16:23:40.282Z,6.30
2022-11-24T16:26:06.927Z,6.20
2022-11-24T16:28:33.980Z,6.20
2022-11-24T16:31:00.648Z,6.10
2022-11-24T16:33:28.301Z,6.00
2022-11-24T16:35:55.224Z,6.00
2022-11-24T16:38:21.750Z,5.90
2022-11-24T16:40:52.830Z,5.80
2022-11-24T16:43:19.553Z,5.80
2022-11-24T16:45:46.380Z,5.70
2022-11-24T16:48:13.351Z,5.70
2022-11-24T16:50:39.857Z,5.70
2022-11-24T16:53:06.382Z,5.60
2022-11-24T16:55:33.313Z,5.50
2022-11-24T16:58:02.716Z,5.40
2022-11-24T17:00:29.294Z,5.30
2022-11-24T17:02:56.308Z,5.20
2022-11-24T17:05:22.828Z,5.20
2022-11-24T17:07:49.374Z,5.10
2022-11-24T17:10:16.388Z,5.00
2022-11-24T17:12:43.329Z,4.90
2022-11-24T17:15:31.866Z,4.80
2022-11-24T17:18:22.781Z,4.80
2022-11-24T17:20:43.893Z,4.70
2022-11-24T17:23:10.801Z,4.60
2022-11-24T17:25:37.282Z,4.50
2022-11-24T17:28:03.853Z,4.50
2022-11-24T17:30:30.790Z,4.40
2022-11-24T17:32:57.786Z,4.30
2022-11-24T17:35:24.278Z,4.20
2022-11-24T17:37:50.727Z,4.20
2022-11-24T17:40:34.686Z,4.20
2022-11-24T17:43:01.518Z,4.20
2022-11-24T17:45:29.416Z,4.10
2022-11-24T17:47:56.921Z,4.00
2022-11-24T17:50:26.117Z,4.00
2022-11-24T17:52:53.146Z,3.90
2022-11-24T17:55:19.652Z,3.80
2022-11-24T17:57:46.321Z,3.70
2022-11-24T18:00:13.725Z,3.70
2022-11-24T18:02:40.270Z,3.60
2022-11-24T18:05:06.987Z,3.60
2022-11-24T18:07:35.507Z,3.60
2022-11-24T18:10:02.066Z,3.50
2022-11-24T18:12:29.001Z,3.40
2022-11-24T18:14:55.548Z,3.30
2022-11-24T18:17:22.536Z,3.30
2022-11-24T18:19:49.008Z,3.20
2022-11-24T18:22:15.478Z,3.10
2022-11-24T18:24:42.385Z,3.00
2022-11-24T18:27:08.931Z,3.00
2022-11-24T18:29:35.840Z,2.90
2022-11-24T18:32:02.411Z,2.80
2022-11-24T18:34:29.465Z,2.80
2022-11-24T18:36:55.943Z,2.90
2022-11-24T18:39:22.477Z,1.80
2022-11-24T18:41:49.445Z,2.80
2022-11-24T18:44:15.956Z,2.80
2022-11-24T18:46:42.885Z,2.70
2022-11-24T18:49:09.372Z,2.70
2022-11-24T18:51:36.381Z,2.70
2022-11-24T18:54:05.130Z,2.70
2022-11-24T18:56:31.610Z,2.60
2022-11-24T18:58:58.097Z,2.60
2022-11-24T19:01:26.353Z,2.60
2022-11-24T19:03:55.521Z,2.60
2022-11-24T19:06:28.720Z,2.60
2022-11-24T19:08:55.681Z,2.50
2022-11-24T19:11:24.073Z,2.50
2022-11-24T19:13:51.424Z,2.40
2022-11-24T19:16:18.883Z,2.30
2022-11-24T19:18:51.867Z,2.30
2022-11-24T19:21:20.816Z,2.30
2022-11-24T19:23:47.373Z,2.20
2022-11-24T19:26:14.482Z,2.20
2022-11-24T19:28:41.210Z,2.20
2022-11-24T19:31:09.078Z,2.20
2022-11-24T19:33:36.724Z,2.10
2022-11-24T19:36:07.823Z,2.20
2022-11-24T19:38:35.385Z,2.20
2022-11-24T19:41:05.462Z,2.20
2022-11-24T19:43:32.581Z,2.30
2022-11-24T19:46:04.006Z,2.40
2022-11-24T19:48:31.893Z,2.40
2022-11-24T19:50:59.559Z,2.50
2022-11-24T19:53:26.081Z,2.60
2022-11-24T19:55:53.013Z,2.70
2022-11-24T19:58:19.506Z,2.80
2022-11-24T20:00:46.532Z,2.80
2022-11-24T20:03:12.997Z,2.70
2022-11-24T20:05:39.866Z,3.10
2022-11-24T20:08:06.338Z,3.20
2022-11-24T20:10:32.789Z,3.20
2022-11-24T20:12:59.814Z,3.20
2022-11-24T20:15:26.691Z,3.20
2022-11-24T20:17:53.136Z,3.30
2022-11-24T20:20:20.016Z,3.30
2022-11-24T20:22:46.499Z,3.40
2022-11-24T20:25:12.960Z,3.40
2022-11-24T20:27:39.855Z,3.40
2022-11-24T20:30:06.733Z,3.50
2022-11-24T20:32:33.617Z,3.50
2022-11-24T20:35:01.573Z,3.60
2022-11-24T20:37:29.796Z,3.60
2022-11-24T20:39:59.064Z,3.70
2022-11-24T20:42:27.236Z,3.70
2022-11-24T20:44:54.182Z,3.70
2022-11-24T20:47:20.679Z,3.80
2022-11-24T20:49:47.584Z,3.80
2022-11-24T20:52:14.124Z,3.90
2022-11-24T20:54:41.004Z,3.90
2022-11-24T20:57:07.470Z,3.90
2022-11-24T20:59:34.395Z,4.00
2022-11-24T21:02:01.134Z,4.00
2022-11-24T21:04:27.721Z,4.00
2022-11-24T21:06:55.112Z,4.00
2022-11-24T21:09:22.120Z,4.00
2022-11-24T21:11:48.635Z,4.00
2022-11-24T21:14:15.178Z,4.00
2022-11-24T21:16:42.491Z,4.10
2022-11-24T21:19:13.526Z,4.10
2022-11-24T21:21:41.350Z,4.10
2022-11-24T21:24:14.730Z,4.10
2022-11-24T21:26:42.655Z,4.20
2022-11-24T21:29:11.379Z,4.20
2022-11-24T21:31:38.713Z,4.30
2022-11-24T21:34:05.944Z,4.30
2022-11-24T21:36:35.503Z,4.40
2022-11-24T21:39:03.166Z,4.40
2022-11-24T21:41:32.104Z,4.50
2022-11-24T21:43:59.052Z,4.60
2022-11-24T21:46:25.930Z,4.60
2022-11-24T21:48:52.418Z,4.60
2022-11-24T21:51:19.784Z,4.70
2022-11-24T21:53:47.379Z,4.70
2022-11-24T21:56:18.494Z,4.70
2022-11-24T21:58:52.840Z,4.70
2022-11-24T22:01:20.743Z,4.70
2022-11-24T22:03:47.787Z,4.70
2022-11-24T22:06:14.316Z,4.70
2022-11-24T22:08:40.836Z,4.70
2022-11-24T22:11:18.786Z,4.70
2022-11-24T22:13:45.692Z,4.70
2022-11-24T22:16:13.789Z,4.60
2022-11-24T22:21:33.592Z,4.40
2022-11-24T22:24:00.268Z,4.30
2022-11-24T22:26:27.142Z,4.20
2022-11-24T22:28:55.377Z,4.10
2022-11-24T22:31:23.225Z,4.00
2022-11-24T22:33:50.372Z,3.90
2022-11-24T22:36:18.981Z,3.80
2022-11-24T22:38:45.868Z,3.90
2022-11-24T22:41:16.577Z,3.90
2022-11-24T22:43:44.157Z,4.00
2022-11-24T22:46:12.097Z,4.00
2022-11-24T22:48:39.649Z,4.00
2022-11-24T22:51:13.588Z,4.00
2022-11-24T22:53:40.845Z,4.00
2022-11-24T22:56:09.400Z,4.00
2022-11-24T22:58:36.229Z,4.00
2022-11-24T23:01:06.534Z,4.10
2022-11-24T23:03:34.762Z,4.10
2022-11-24T23:06:02.109Z,4.10
2022-11-24T23:08:29.150Z,4.10
2022-11-24T23:10:59.782Z,4.20
2022-11-24T23:13:26.670Z,4.20
2022-11-24T23:15:53.719Z,4.40
2022-11-24T23:18:20.680Z,4.30
2022-11-24T23:20:47.200Z,4.30
2022-11-24T23:23:14.087Z,4.30
2022-11-24T23:25:40.597Z,4.40
2022-11-24T23:28:07.070Z,4.40
2022-11-24T23:30:33.948Z,4.40
2022-11-24T23:33:00.837Z,4.50
2022-11-24T23:35:27.338Z,4.50
2022-11-24T23:38:07.377Z,4.50
2022-11-24T23:40:34.115Z,4.50
2022-11-24T23:43:01.030Z,4.50
2022-11-24T23:45:27.603Z,4.50
2022-11-24T23:47:54.157Z,4.60
2022-11-24T23:50:21.024Z,4.60
2022-11-24T23:52:47.740Z,4.60
2022-11-24T23:55:14.614Z,4.60
2022-11-24T23:57:41.065Z,4.70
